createdAt,value
2023-01-22T00:05:54.861Z,110.10
2023-01-22T00:16:00.021Z,54.83
2023-01-22T00:26:06.149Z,118.43
2023-01-22T00:36:19.832Z,64.87
2023-01-22T00:46:25.343Z,124.17
2023-01-22T00:56:28.449Z,82.40
2023-01-22T01:06:33.546Z,108.00
2023-01-22T01:16:37.829Z,106.20
2023-01-22T01:26:43.280Z,25.80
2023-01-22T01:36:49.406Z,60.30
2023-01-22T01:46:56.744Z,64.63
2023-01-22T01:57:09.889Z,58.80
2023-01-22T02:07:13.704Z,15.80
2023-01-22T02:17:20.601Z,52.00
2023-01-22T02:27:28.339Z,42.73
2023-01-22T02:37:32.730Z,17.03
2023-01-22T02:47:39.796Z,39.23
2023-01-22T02:57:44.081Z,69.23
2023-01-22T03:07:46.447Z,78.67
2023-01-22T03:18:07.287Z,83.77
2023-01-22T03:28:19.065Z,19.10
2023-01-22T03:38:28.318Z,19.80
2023-01-22T03:48:31.005Z,30.83
2023-01-22T03:58:36.577Z,13.97
2023-01-22T04:08:44.596Z,26.23
2023-01-22T04:18:49.228Z,49.30
2023-01-22T04:28:58.257Z,58.50
2023-01-22T04:39:00.637Z,47.13
2023-01-22T04:49:03.622Z,36.03
2023-01-22T04:59:08.420Z,50.47
2023-01-22T05:09:10.967Z,60.00
2023-01-22T05:19:29.704Z,30.93
2023-01-22T05:29:37.613Z,44.53
2023-01-22T05:39:49.315Z,37.90
2023-01-22T05:49:55.274Z,22.23
2023-01-22T06:00:01.415Z,42.13
2023-01-22T06:10:07.390Z,51.73
2023-01-22T06:20:17.876Z,8.17
2023-01-22T06:30:20.375Z,14.57
2023-01-22T06:40:25.215Z,44.40
2023-01-22T06:50:29.234Z,31.17
2023-01-22T07:00:31.524Z,39.27
2023-01-22T07:10:33.653Z,18.90
2023-01-22T07:20:38.305Z,24.33
2023-01-22T07:30:42.367Z,25.47
2023-01-22T07:40:44.400Z,17.90
2023-01-22T07:50:46.489Z,10.63
2023-01-22T08:00:48.958Z,22.80
2023-01-22T08:10:53.213Z,25.23
2023-01-22T08:21:01.344Z,30.67
2023-01-22T08:31:09.391Z,32.13
2023-01-22T08:41:13.598Z,16.73
2023-01-22T08:51:17.817Z,32.30
2023-01-22T09:01:22.333Z,16.57
2023-01-22T09:11:24.573Z,31.50
2023-01-22T09:21:26.726Z,23.70
2023-01-22T09:31:33.348Z,19.60
2023-01-22T09:41:41.901Z,26.80
2023-01-22T09:51:55.349Z,23.20
2023-01-22T10:02:30.026Z,23.20
2023-01-22T10:12:32.054Z,22.33
2023-01-22T10:22:38.765Z,15.97
2023-01-22T10:32:41.025Z,18.43
2023-01-22T10:42:43.151Z,22.73
2023-01-22T10:52:55.020Z,14.80
2023-01-22T11:03:00.032Z,25.50
2023-01-22T11:13:42.861Z,21.27
2023-01-22T11:23:47.964Z,19.77
2023-01-22T11:34:04.764Z,27.10
2023-01-22T11:44:48.084Z,32.43
2023-01-22T11:55:18.937Z,39.17
2023-01-22T12:05:42.189Z,27.53
2023-01-22T12:16:05.703Z,30.27
2023-01-22T12:26:28.769Z,29.80
2023-01-22T12:36:35.920Z,16.67
2023-01-22T12:47:02.722Z,22.00
2023-01-22T12:57:10.867Z,19.90
2023-01-22T13:07:23.017Z,22.27
2023-01-22T13:17:32.213Z,15.50
2023-01-22T13:27:37.582Z,12.23
2023-01-22T13:37:44.348Z,15.60
2023-01-22T13:47:53.886Z,18.17
2023-01-22T13:58:01.884Z,14.80
2023-01-22T14:08:16.518Z,20.27
2023-01-22T14:18:18.636Z,21.73
2023-01-22T14:28:24.440Z,24.10
2023-01-22T14:38:31.953Z,22.43
2023-01-22T14:48:34.183Z,26.93
2023-01-22T14:58:36.533Z,27.17
2023-01-22T15:08:40.914Z,13.83
2023-01-22T15:18:45.484Z,28.60
2023-01-22T15:28:47.515Z,15.03
2023-01-22T15:38:52.127Z,28.47
2023-01-22T15:48:54.461Z,22.30
2023-01-22T15:58:59.459Z,30.53
2023-01-22T16:09:04.665Z,26.50
2023-01-22T16:19:08.505Z,34.17
2023-01-22T16:29:13.292Z,21.63
2023-01-22T16:39:22.511Z,30.47
2023-01-22T16:49:27.881Z,30.37
2023-01-22T16:59:31.812Z,37.80
2023-01-22T17:09:36.552Z,36.63
2023-01-22T17:19:38.655Z,31.87
2023-01-22T17:29:42.209Z,22.33
2023-01-22T17:39:49.173Z,34.57
2023-01-22T17:49:51.289Z,36.03
2023-01-22T17:59:53.437Z,44.40
2023-01-22T18:09:58.147Z,22.33
2023-01-22T18:20:00.389Z,40.67
2023-01-22T18:30:05.477Z,30.30
2023-01-22T18:40:08.365Z,42.40
2023-01-22T18:50:12.464Z,19.53
2023-01-22T19:00:17.089Z,39.27
2023-01-22T19:10:24.189Z,38.57
2023-01-22T19:20:28.540Z,32.97
2023-01-22T19:30:35.995Z,36.17
2023-01-22T19:40:41.626Z,36.50
2023-01-22T19:50:43.783Z,44.37
2023-01-22T20:00:48.261Z,33.03
2023-01-22T20:11:01.577Z,39.30
2023-01-22T20:21:06.236Z,33.33
2023-01-22T20:31:17.856Z,43.57
2023-01-22T20:41:20.578Z,34.53
2023-01-22T20:51:27.469Z,32.70
2023-01-22T21:01:33.328Z,32.50
2023-01-22T21:11:37.652Z,37.63
2023-01-22T21:21:39.911Z,18.97
2023-01-22T21:31:45.364Z,28.67
2023-01-22T21:41:47.534Z,36.93
2023-01-22T21:51:54.526Z,34.00
2023-01-22T22:01:58.378Z,33.37
2023-01-22T22:12:04.688Z,35.30
2023-01-22T22:22:07.665Z,30.63
2023-01-22T22:32:11.675Z,25.50
2023-01-22T22:42:14.973Z,42.40
2023-01-22T22:52:22.208Z,29.00
2023-01-22T23:02:25.909Z,32.30
2023-01-22T23:12:30.904Z,37.87
2023-01-22T23:22:33.163Z,26.57
2023-01-22T23:32:37.555Z,27.07
2023-01-22T23:42:45.902Z,23.10
2023-01-22T23:52:50.314Z,15.60
